KGSH/GSH METAR and TAF weather

Enter ICAO airport designator
Station Type Date Time Source
KGSH METAR 2021/10/24 21:15 UTC NOAA

KGSH 242115Z AUTO 06011KT 4SM -RA BR BKN006 OVC014 08/07 A2988 RMK AO2 P0002 T00830067


Station Type Date Time Source
KGSH Decoded METAR 2021/10/24 21:15 UTC NOAA

GOSHEN MUNICIPAL AIRPORT, IN, United States (KGSH) 41-32N 85-47W 252M
Oct 24, 2021 - 05:15 PM EDT / 2021.10.24 2115 UTC
Wind: from the ENE (060 degrees) at 13 MPH (11 KT):0
Visibility: 4 mile(s):0
Sky conditions: overcast
Weather: light rain; mist
Precipitation last hour: 0.02 inches
Temperature: 46.9 F (8.3 C)
Dew Point: 44.1 F (6.7 C)
Relative Humidity: 89%
Pressure (altimeter): 29.88 in. Hg (1011 hPa)
ob: KGSH 242115Z AUTO 06011KT 4SM -RA BR BKN006 OVC014 08/07 A2988 RMK AO2 P0002 T00830067
cycle: 21

Station Type Date Time Source
KGSH TAF UTC NOAA

Error!

Example: see airport list